Time;durP1;ratioP1;P1;durP2;ratioP2;P2;SDS_P1;SDS_P2;PMS_P1;PMS_P2;Temp;Humidity;BMP_temperature;BMP_pressure;BME280_temperature;BME280_humidity;BME280_pressure;Samples;Min_cycle;Max_cycle;Signal;HPM_P1;HPM_P2
2021/07/19 00:02:02;;;;;;;;;;;;;;;;;;;;;
2021/07/19 00:08:24;;;;;;;;;;;;;;;;;;;;;
2021/07/19 00:11:49;;;;;;;;;;;;;;;;;;;;;
2021/07/19 00:21:06;;;;;;;3.47;3.17;;;25.40;59.30;;;;;;4859358;29;20420;-86
2021/07/19 00:24:02;;;;;;;3.67;3.37;;;25.40;58.70;;;;;;4859679;29;20412;-86
2021/07/19 00:27:19;;;;;;;;;;;;;;;;;;;;;
2021/07/19 00:30:38;;;;;;;;;;;;;;;;;;;;;
2021/07/19 00:33:41;;;;;;;;;;;;;;;;;;;;;
2021/07/19 00:36:49;;;;;;;;;;;;;;;;;;;;;
2021/07/19 00:49:29;;;;;;;4.07;3.70;;;25.40;58.70;;;;;;4878079;29;20443;-86
2021/07/19 00:52:38;;;;;;;;;;;;;;;;;;;;;
2021/07/19 00:55:31;;;;;;;3.97;3.57;;;25.40;58.80;;;;;;4913040;29;20425;-86
2021/07/19 00:58:41;;;;;;;;;;;;;;;;;;;;;
2021/07/19 01:08:20;;;;;;;4.13;3.20;;;25.40;58.80;;;;;;4803126;30;20452;-87
2021/07/19 01:17:51;;;;;;;4.17;3.30;;;25.40;58.80;;;;;;4799734;30;20423;-86
2021/07/19 01:24:42;;;;;;;3.83;3.53;;;25.40;58.70;;;;;;4784566;30;20415;-86
2021/07/19 01:27:28;;;;;;;;;;;;;;;;;;;;;
2021/07/19 01:30:27;;;;;;;4.93;3.80;;;25.40;58.80;;;;;;4784560;30;20538;-85
2021/07/19 01:33:13;;;;;;;;;;;;;;;;;;;;;
2021/07/19 01:39:35;;;;;;;3.60;3.30;;;25.40;58.80;;;;;;4787118;30;20431;-85
2021/07/19 01:42:25;;;;;;;;;;;;;;;;;;;;;
2021/07/19 01:48:03;;;;;;;3.90;3.60;;;25.40;58.80;;;;;;4830007;29;20493;-85
2021/07/19 01:51:03;;;;;;;;;;;;;;;;;;;;;
2021/07/19 01:53:51;;;;;;;3.93;3.60;;;25.40;58.70;;;;;;4886789;29;20444;-85
2021/07/19 01:56:48;;;;;;;;;;;;;;;;;;;;;
2021/07/19 01:59:43;;;;;;;3.40;3.10;;;25.40;58.70;;;;;;4914323;29;20431;-85
2021/07/19 02:02:24;;;;;;;3.37;3.07;;;25.40;58.70;;;;;;4976159;28;20504;-85
2021/07/19 02:04:55;;;;;;;4.27;3.73;;;25.40;58.70;;;;;;4991701;28;20393;-85
2021/07/19 02:07:45;;;;;;;3.67;3.37;;;25.40;58.70;;;;;;4975148;28;20457;-85
2021/07/19 02:10:36;;;;;;;3.50;3.20;;;25.50;58.70;;;;;;4991939;28;20424;-85
2021/07/19 02:13:08;;;;;;;4.20;3.50;;;25.50;58.70;;;;;;4964707;28;20500;-85
2021/07/19 02:15:52;;;;;;;4.00;3.70;;;25.50;58.80;;;;;;4974198;28;20674;-85
2021/07/19 02:18:41;;;;;;;4.03;3.63;;;25.40;58.70;;;;;;4973925;28;20398;-85
2021/07/19 02:21:39;;;;;;;;;;;;;;;;;;;;;
2021/07/19 02:24:23;;;;;;;;;;;;;;;;;;;;;
2021/07/19 02:26:59;;;;;;;3.67;3.37;;;25.50;58.70;;;;;;4984329;28;20477;-84
2021/07/19 02:29:45;;;;;;;;;;;;;;;;;;;;;
2021/07/19 02:35:09;;;;;;;3.80;3.10;;;25.50;58.70;;;;;;4981048;28;20437;-85
2021/07/19 02:37:43;;;;;;;4.23;3.70;;;25.40;58.70;;;;;;4990042;28;20413;-85
2021/07/19 02:40:14;;;;;;;4.30;3.90;;;25.40;58.60;;;;;;4947117;29;20563;-85
2021/07/19 02:43:11;;;;;;;4.03;3.33;;;25.50;58.70;;;;;;4970460;29;20406;-86
2021/07/19 02:45:55;;;;;;;3.30;3.00;;;25.50;58.70;;;;;;4953536;29;20462;-86
2021/07/19 02:48:29;;;;;;;4.30;3.90;;;25.50;58.70;;;;;;4969302;29;21007;-86
2021/07/19 02:51:00;;;;;;;4.07;3.77;;;25.50;58.70;;;;;;4988712;28;20448;-86
2021/07/19 02:53:40;;;;;;;3.60;3.30;;;25.50;58.70;;;;;;4972477;28;20408;-86
2021/07/19 02:56:07;;;;;;;3.80;3.50;;;25.50;58.70;;;;;;4973188;28;20417;-85
2021/07/19 02:58:39;;;;;;;4.10;3.70;;;25.50;58.70;;;;;;4988735;28;20930;-85
2021/07/19 03:01:14;;;;;;;4.00;3.63;;;25.50;58.70;;;;;;4973075;28;20456;-85
2021/07/19 03:03:58;;;;;;;;;;;;;;;;;;;;;
2021/07/19 03:06:50;;;;;;;3.90;3.60;;;25.50;58.70;;;;;;4984774;28;20473;-86
2021/07/19 03:09:46;;;;;;;3.33;3.03;;;25.50;58.60;;;;;;4973611;28;20412;-86
2021/07/19 03:12:29;;;;;;;;;;;;;;;;;;;;;
2021/07/19 03:15:20;;;;;;;;;;;;;;;;;;;;;
2021/07/19 03:18:10;;;;;;;;;;;;;;;;;;;;;
2021/07/19 03:20:50;;;;;;;;;;;;;;;;;;;;;
2021/07/19 03:23:22;;;;;;;3.30;3.00;;;25.40;58.70;;;;;;4983615;28;20409;-84
2021/07/19 03:26:02;;;;;;;3.57;3.10;;;25.50;58.70;;;;;;4972291;28;20453;-84
2021/07/19 03:28:39;;;;;;;6.40;3.90;;;25.50;58.70;;;;;;4972495;28;20452;-85
2021/07/19 03:31:17;;;;;;;;;;;;;;;;;;;;;
2021/07/19 03:34:01;;;;;;;;;;;;;;;;;;;;;
2021/07/19 03:36:54;;;;;;;;;;;;;;;;;;;;;
2021/07/19 03:39:53;;;;;;;;;;;;;;;;;;;;;
2021/07/19 03:49:12;;;;;;;3.60;3.30;;;25.50;58.70;;;;;;4994086;28;20409;-86
2021/07/19 03:51:55;;;;;;;;;;;;;;;;;;;;;
2021/07/19 03:55:03;;;;;;;3.63;3.33;;;25.50;58.70;;;;;;4987959;28;20446;-86
2021/07/19 03:58:16;;;;;;;3.40;3.20;;;25.40;58.70;;;;;;4995119;28;20420;-87
2021/07/19 04:01:36;;;;;;;;;;;;;;;;;;;;;
2021/07/19 04:04:52;;;;;;;;;;;;;;;;;;;;;
2021/07/19 04:07:59;;;;;;;3.80;3.50;;;25.40;58.70;;;;;;4994953;28;20453;-86
2021/07/19 04:13:56;;;;;;;3.70;3.40;;;25.40;58.70;;;;;;4965923;28;20418;-86
2021/07/19 04:16:27;;;;;;;4.53;3.77;;;25.40;58.70;;;;;;4978377;28;20417;-86
2021/07/19 04:19:02;;;;;;;4.43;4.03;;;25.40;58.70;;;;;;4991980;28;20421;-87
2021/07/19 04:21:35;;;;;;;4.20;3.80;;;25.40;58.70;;;;;;4976099;28;20439;-90
2021/07/19 04:28:30;;;;;;;5.10;3.53;;;25.50;58.70;;;;;;4981354;28;20449;-88
2021/07/19 04:31:32;;;;;;;;;;;;;;;;;;;;;
2021/07/19 04:37:42;;;;;;;;;;;;;;;;;;;;;
2021/07/19 04:47:53;;;;;;;;;;;;;;;;;;;;;
2021/07/19 04:57:25;;;;;;;4.10;3.03;;;25.40;58.70;;;;;;4900309;29;20485;-88
2021/07/19 05:07:17;;;;;;;;;;;;;;;;;;;;;
2021/07/19 05:10:15;;;;;;;;;;;;;;;;;;;;;
2021/07/19 05:16:56;;;;;;;;;;;;;;;;;;;;;
2021/07/19 05:23:04;;;;;;;4.33;3.93;;;25.50;58.70;;;;;;4904526;29;20938;-89
2021/07/19 05:25:54;;;;;;;5.47;4.07;;;25.50;58.70;;;;;;4890708;29;20413;-88
2021/07/19 05:28:45;;;;;;;4.20;3.80;;;25.50;58.70;;;;;;4913513;29;20415;-89
2021/07/19 05:31:38;;;;;;;;;;;;;;;;;;;;;
2021/07/19 05:34:27;;;;;;;;;;;;;;;;;;;;;
2021/07/19 11:41:30;;;;;;;5.80;4.83;;;25.60;59.00;;;;;;6057194;23;20440;-88
2021/07/19 11:44:48;;;;;;;;;;;;;;;;;;;;;
2021/07/19 13:10:26;;;;;;;;;;;;;;;;;;;;;
2021/07/19 13:13:56;;;;;;;9.40;7.37;;;25.60;59.00;;;;;;5824171;24;20564;-89
2021/07/19 13:36:58;;;;;;;7.63;5.90;;;25.60;59.00;;;;;;5936331;23;20388;-86
2021/07/19 13:45:52;;;;;;;6.00;5.40;;;25.70;59.00;;;;;;5912902;24;20368;-88
2021/07/19 13:52:16;;;;;;;9.37;5.20;;;25.70;59.00;;;;;;5969208;24;20374;-88
2021/07/19 13:55:00;;;;;;;7.00;5.90;;;25.60;59.00;;;;;;5944983;24;20405;-87
2021/07/19 13:57:43;;;;;;;6.23;5.63;;;25.70;59.10;;;;;;5998460;23;20428;-88
2021/07/19 14:00:32;;;;;;;6.40;5.20;;;25.70;59.00;;;;;;6025288;23;20409;-88
2021/07/19 14:03:17;;;;;;;10.40;5.93;;;25.60;59.00;;;;;;6026042;23;20392;-87
2021/07/19 14:06:15;;;;;;;5.47;4.90;;;25.70;59.00;;;;;;6025046;23;20388;-89
2021/07/19 14:09:39;;;;;;;7.90;6.10;;;25.70;59.00;;;;;;5998357;23;20428;-88
2021/07/19 14:13:04;;;;;;;;;;;;;;;;;;;;;
2021/07/19 14:15:32;;;;;;;8.07;6.33;;;25.80;59.00;;;;;;5969424;24;20415;-87
2021/07/19 14:18:03;;;;;;;5.37;4.87;;;25.80;59.10;;;;;;5969789;24;20468;-86
2021/07/19 14:20:41;;;;;;;8.67;5.93;;;25.80;59.00;;;;;;5993380;24;20393;-85
2021/07/19 14:23:08;;;;;;;6.07;5.17;;;25.90;59.10;;;;;;6023496;23;20445;-84
2021/07/19 14:25:44;;;;;;;5.60;5.10;;;25.90;59.20;;;;;;5976296;24;20389;-84
2021/07/19 14:28:41;;;;;;;;;;;;;;;;;;;;;
2021/07/19 14:31:30;;;;;;;7.03;5.73;;;25.90;59.10;;;;;;6052453;23;20392;-85
2021/07/19 14:37:56;;;;;;;7.10;5.13;;;26.00;59.10;;;;;;6057298;23;20350;-84
